createdAt,value
2018-04-12T00:00:57.298Z,92.41
2018-04-12T00:01:57.294Z,92.46
2018-04-12T00:02:57.297Z,92.55
2018-04-12T00:03:57.298Z,92.55
2018-04-12T00:04:57.303Z,92.55
2018-04-12T00:05:57.309Z,92.55
2018-04-12T00:06:57.310Z,92.36
2018-04-12T00:07:57.317Z,92.46
2018-04-12T00:08:57.314Z,92.46
2018-04-12T00:09:57.322Z,92.46
2018-04-12T00:10:57.318Z,92.26
2018-04-12T00:11:57.324Z,92.17
2018-04-12T00:12:57.327Z,92.26
2018-04-12T00:13:57.331Z,92.26
2018-04-12T00:14:57.331Z,92.26
2018-04-12T00:15:57.338Z,92.07
2018-04-12T00:16:57.336Z,92.07
2018-04-12T00:17:57.404Z,92.36
2018-04-12T00:18:57.409Z,92.36
2018-04-12T00:19:57.343Z,92.17
2018-04-12T00:20:57.350Z,92.46
2018-04-12T00:21:57.356Z,92.17
2018-04-12T00:22:57.352Z,92.17
2018-04-12T00:23:57.356Z,92.26
2018-04-12T00:24:57.417Z,92.26
2018-04-12T00:25:57.361Z,92.55
2018-04-12T00:26:57.362Z,92.36
2018-04-12T00:27:57.366Z,92.07
2018-04-12T00:28:57.367Z,92.26
2018-04-12T00:29:57.371Z,92.26
2018-04-12T00:30:57.373Z,92.36
2018-04-12T00:31:57.380Z,92.36
2018-04-12T00:32:57.380Z,91.88
2018-04-12T00:33:57.382Z,91.98
2018-04-12T00:34:57.384Z,92.26
2018-04-12T00:35:57.391Z,92.26
2018-04-12T00:36:57.393Z,92.46
2018-04-12T00:37:57.394Z,92.36
2018-04-12T00:38:57.398Z,92.60
2018-04-12T00:39:57.403Z,92.32
2018-04-12T00:40:57.408Z,92.03
2018-04-12T00:41:57.408Z,92.03
2018-04-12T00:42:57.420Z,92.03
2018-04-12T00:43:57.412Z,92.07
2018-04-12T00:44:57.416Z,92.03
2018-04-12T00:45:57.422Z,92.22
2018-04-12T00:46:57.417Z,92.26
2018-04-12T00:47:57.420Z,92.03
2018-04-12T00:48:57.423Z,92.07
2018-04-12T00:49:57.426Z,92.22
2018-04-12T00:50:57.432Z,92.22
2018-04-12T00:51:57.501Z,93.08
2018-04-12T00:52:57.433Z,92.98
2018-04-12T00:53:57.435Z,92.88
2018-04-12T00:54:57.439Z,92.88
2018-04-12T00:55:57.442Z,92.98
2018-04-12T00:56:57.444Z,92.98
2018-04-12T00:57:57.453Z,92.79
2018-04-12T00:58:57.451Z,92.98
2018-04-12T00:59:57.454Z,92.88
2018-04-12T01:00:57.456Z,93.08
2018-04-12T01:01:57.461Z,92.88
2018-04-12T01:02:57.465Z,92.98
2018-04-12T01:03:57.463Z,92.88
2018-04-12T01:04:57.471Z,93.08
2018-04-12T01:05:57.475Z,92.88
2018-04-12T01:06:57.471Z,92.88
2018-04-12T01:07:57.480Z,92.69
2018-04-12T01:08:57.477Z,92.79
2018-04-12T01:09:57.498Z,92.79
2018-04-12T01:10:57.481Z,92.69
2018-04-12T01:11:57.484Z,92.41
2018-04-12T01:12:57.488Z,92.69
2018-04-12T01:13:57.489Z,92.79
2018-04-12T01:14:57.492Z,92.69
2018-04-12T01:15:57.494Z,92.79
2018-04-12T01:16:57.497Z,92.79
2018-04-12T01:17:57.499Z,92.98
2018-04-12T01:18:57.503Z,92.98
2018-04-12T01:19:57.509Z,92.60
2018-04-12T01:20:57.510Z,92.79
2018-04-12T01:21:57.511Z,92.32
2018-04-12T01:22:57.511Z,93.17
2018-04-12T01:23:57.517Z,93.17
2018-04-12T01:24:57.521Z,92.98
2018-04-12T01:25:57.523Z,93.46
2018-04-12T01:26:57.531Z,93.17
2018-04-12T01:27:57.531Z,93.46
2018-04-12T01:28:57.547Z,93.17
2018-04-12T01:29:57.531Z,92.98
2018-04-12T01:30:57.544Z,93.08
2018-04-12T01:31:57.535Z,93.46
2018-04-12T01:32:57.540Z,92.98
2018-04-12T01:33:57.542Z,93.17
2018-04-12T01:34:57.544Z,92.79
2018-04-12T01:35:57.553Z,93.27
2018-04-12T01:36:57.550Z,92.98
2018-04-12T01:37:57.555Z,93.17
2018-04-12T01:38:57.557Z,92.88
2018-04-12T01:39:57.557Z,93.08
2018-04-12T01:40:57.559Z,93.08
2018-04-12T01:41:57.564Z,92.98
2018-04-12T01:42:57.564Z,92.98
2018-04-12T01:43:57.566Z,93.27
2018-04-12T01:44:57.572Z,92.98
2018-04-12T01:45:57.577Z,92.98
2018-04-12T01:46:57.573Z,92.98
2018-04-12T01:47:57.577Z,93.65
2018-04-12T01:48:57.586Z,93.65
2018-04-12T01:49:57.588Z,93.65
2018-04-12T01:50:57.600Z,93.36
2018-04-12T01:51:57.589Z,93.55
2018-04-12T01:52:57.589Z,93.36
2018-04-12T01:53:57.591Z,93.46
2018-04-12T01:54:57.594Z,93.93
2018-04-12T01:55:57.596Z,93.46
2018-04-12T01:56:57.599Z,93.93
2018-04-12T01:57:57.604Z,93.74
2018-04-12T01:58:59.788Z,94.51
2018-04-12T02:00:00.350Z,94.60
2018-04-12T02:00:59.021Z,94.41
2018-04-12T02:02:00.789Z,94.41
2018-04-12T02:02:59.706Z,93.84
2018-04-12T02:03:57.618Z,93.84
2018-04-12T02:04:57.625Z,93.84
2018-04-12T02:05:57.625Z,93.74
2018-04-12T02:06:57.625Z,93.36
2018-04-12T02:07:57.626Z,93.51
2018-04-12T02:08:57.632Z,94.46
2018-04-12T02:09:57.633Z,93.98
2018-04-12T02:10:57.635Z,94.46
2018-04-12T02:11:57.650Z,94.27
2018-04-12T02:12:57.643Z,94.08
2018-04-12T02:13:57.696Z,94.56
2018-04-12T02:14:57.652Z,94.56
2018-04-12T02:15:57.648Z,94.56
2018-04-12T02:16:57.650Z,94.17
2018-04-12T02:17:57.664Z,94.56
2018-04-12T02:18:57.656Z,94.27
2018-04-12T02:19:57.658Z,94.46
2018-04-12T02:20:57.661Z,94.37
2018-04-12T02:21:57.665Z,94.37
2018-04-12T02:22:57.665Z,94.46
2018-04-12T02:23:57.670Z,94.08
2018-04-12T02:24:57.671Z,94.27
2018-04-12T02:25:57.675Z,94.17
2018-04-12T02:26:57.675Z,94.17
2018-04-12T02:27:57.680Z,94.65
2018-04-12T02:28:57.688Z,94.37
2018-04-12T02:29:57.684Z,95.03
2018-04-12T02:30:57.686Z,94.17
2018-04-12T02:31:57.688Z,94.17
2018-04-12T02:32:57.694Z,94.17
2018-04-12T02:33:57.695Z,93.98
2018-04-12T02:34:57.698Z,94.46
2018-04-12T02:35:57.704Z,93.98
2018-04-12T02:36:57.751Z,94.08
2018-04-12T02:37:57.755Z,94.27
2018-04-12T02:38:57.713Z,94.08
2018-04-12T02:39:57.708Z,94.27
2018-04-12T02:40:57.712Z,94.46
2018-04-12T02:41:57.780Z,94.46
2018-04-12T02:42:57.715Z,94.46
2018-04-12T02:43:57.720Z,94.27
2018-04-12T02:44:57.721Z,94.56
2018-04-12T02:45:57.725Z,94.65
2018-04-12T02:46:57.848Z,94.74
2018-04-12T02:47:57.729Z,95.12
2018-04-12T02:48:57.733Z,95.32
2018-04-12T02:49:57.772Z,95.51
2018-04-12T02:50:57.735Z,95.61
2018-04-12T02:51:57.736Z,95.51
2018-04-12T02:52:57.737Z,95.61
2018-04-12T02:53:57.742Z,95.51
2018-04-12T02:54:57.743Z,95.41
2018-04-12T02:55:57.750Z,95.12
2018-04-12T02:56:57.751Z,95.61
2018-04-12T02:57:57.758Z,95.51
2018-04-12T02:58:57.760Z,95.61
2018-04-12T02:59:57.759Z,95.61
2018-04-12T03:00:57.765Z,95.70
2018-04-12T03:01:57.777Z,95.32
2018-04-12T03:02:57.760Z,95.70
2018-04-12T03:03:57.767Z,95.32
2018-04-12T03:04:57.769Z,95.32
2018-04-12T03:05:57.776Z,95.22
2018-04-12T03:06:57.768Z,95.98
2018-04-12T03:07:57.770Z,95.51
2018-04-12T03:08:57.776Z,95.41
2018-04-12T03:09:57.777Z,95.22
2018-04-12T03:10:57.787Z,95.75
2018-04-12T03:11:57.783Z,96.03
2018-04-12T03:12:57.806Z,95.94
2018-04-12T03:13:57.797Z,95.98
2018-04-12T03:14:57.793Z,95.98
2018-04-12T03:15:57.792Z,96.22
2018-04-12T03:16:57.801Z,95.94
2018-04-12T03:17:57.799Z,96.41
2018-04-12T03:18:57.805Z,96.22
2018-04-12T03:19:57.803Z,96.12
2018-04-12T03:20:57.805Z,96.70
2018-04-12T03:21:57.808Z,96.80
2018-04-12T03:22:57.814Z,96.89
2018-04-12T03:23:57.813Z,96.98
2018-04-12T03:24:57.818Z,96.98
2018-04-12T03:25:57.825Z,96.70
2018-04-12T03:26:57.819Z,96.70
2018-04-12T03:27:57.821Z,96.51
2018-04-12T03:28:57.830Z,96.89
2018-04-12T03:29:57.827Z,96.70
2018-04-12T03:30:57.833Z,96.03
2018-04-12T03:31:57.830Z,96.22
2018-04-12T03:32:57.835Z,96.12
2018-04-12T03:33:57.835Z,96.32
2018-04-12T03:34:57.842Z,96.22
2018-04-12T03:35:57.848Z,96.41
2018-04-12T03:36:57.840Z,95.94
2018-04-12T03:37:57.847Z,96.70
2018-04-12T03:38:57.846Z,96.89
2018-04-12T03:39:57.850Z,96.89
2018-04-12T03:40:57.860Z,96.41
2018-04-12T03:41:57.863Z,96.60
2018-04-12T03:42:58.728Z,96.89
2018-04-12T03:43:57.869Z,96.80
2018-04-12T03:44:57.875Z,96.51
2018-04-12T03:45:57.894Z,96.22
2018-04-12T03:46:57.868Z,96.60
2018-04-12T03:47:57.866Z,96.51
2018-04-12T03:48:57.890Z,96.60
2018-04-12T03:49:57.876Z,96.41
2018-04-12T03:50:57.875Z,96.41
2018-04-12T03:51:57.880Z,96.60
2018-04-12T03:52:57.884Z,96.80
2018-04-12T03:53:57.885Z,96.70
2018-04-12T03:54:57.892Z,96.89
2018-04-12T03:55:57.890Z,96.89
2018-04-12T03:56:57.891Z,97.36
2018-04-12T03:57:57.900Z,96.98
2018-04-12T03:58:57.891Z,97.75
2018-04-12T03:59:57.899Z,97.65
2018-04-12T04:00:57.903Z,97.17
2018-04-12T04:01:57.900Z,97.27
2018-04-12T04:02:57.916Z,97.36
2018-04-12T04:03:57.909Z,97.36
2018-04-12T04:04:57.944Z,97.56
2018-04-12T04:05:57.920Z,97.65
2018-04-12T04:06:57.928Z,96.80
2018-04-12T04:07:57.917Z,96.98
2018-04-12T04:08:57.920Z,96.89
2018-04-12T04:09:57.930Z,97.08
2018-04-12T04:10:57.935Z,96.98
2018-04-12T04:11:57.923Z,96.89
2018-04-12T04:12:57.927Z,96.98
2018-04-12T04:13:57.932Z,96.98
2018-04-12T04:14:57.934Z,97.56
2018-04-12T04:15:57.933Z,97.36
2018-04-12T04:16:57.939Z,97.17
2018-04-12T04:17:57.939Z,97.08
2018-04-12T04:18:57.943Z,97.84
2018-04-12T04:19:57.940Z,97.75
2018-04-12T04:20:57.953Z,96.98
2018-04-12T04:21:57.949Z,96.89
2018-04-12T04:22:57.959Z,97.17
2018-04-12T04:23:57.955Z,96.89
2018-04-12T04:24:57.961Z,96.70
2018-04-12T04:25:57.962Z,96.56
2018-04-12T04:26:57.960Z,96.94
2018-04-12T04:27:57.980Z,96.84
2018-04-12T04:28:57.965Z,96.36
2018-04-12T04:29:57.976Z,96.65
2018-04-12T04:30:57.973Z,96.46
2018-04-12T04:31:57.970Z,96.27
2018-04-12T04:32:57.981Z,96.46
2018-04-12T04:33:57.976Z,96.46
2018-04-12T04:34:57.987Z,96.56
2018-04-12T04:35:57.982Z,96.56
2018-04-12T04:36:57.987Z,96.17
2018-04-12T04:37:57.988Z,96.56
2018-04-12T04:38:57.991Z,96.75
2018-04-12T04:39:58.000Z,96.75
2018-04-12T04:40:58.003Z,96.94
2018-04-12T04:41:58.000Z,96.17
2018-04-12T04:42:58.004Z,96.36
2018-04-12T04:43:58.005Z,96.36
2018-04-12T04:44:58.006Z,96.36
2018-04-12T04:45:58.009Z,96.27
2018-04-12T04:46:58.012Z,96.27
2018-04-12T04:47:58.010Z,96.27
2018-04-12T04:48:58.022Z,96.36
2018-04-12T04:49:58.028Z,96.27
2018-04-12T04:50:58.033Z,96.27
2018-04-12T04:51:58.029Z,96.46
2018-04-12T04:52:58.057Z,97.03
2018-04-12T04:53:58.028Z,96.56
2018-04-12T04:54:58.062Z,97.03
2018-04-12T04:55:58.060Z,96.94
2018-04-12T04:56:58.748Z,97.03
2018-04-12T04:57:58.037Z,97.80
2018-04-12T04:58:58.043Z,97.61
2018-04-12T04:59:58.040Z,97.13
2018-04-12T05:00:58.052Z,97.61
2018-04-12T05:01:58.065Z,97.51
2018-04-12T05:02:58.058Z,97.80
2018-04-12T05:03:58.057Z,97.70
2018-04-12T05:04:58.053Z,98.27
2018-04-12T05:05:58.067Z,98.56
2018-04-12T05:06:58.058Z,98.46
2018-04-12T05:07:58.105Z,99.13
2018-04-12T05:08:58.066Z,99.22
2018-04-12T05:09:58.090Z,99.32
2018-04-12T05:10:58.073Z,99.41
2018-04-12T05:11:58.071Z,99.32
2018-04-12T05:12:58.081Z,99.04
2018-04-12T05:13:58.092Z,98.94
2018-04-12T05:14:58.093Z,98.70
2018-04-12T05:15:58.155Z,99.37
2018-04-12T05:16:58.103Z,99.46
2018-04-12T05:17:58.090Z,99.46
2018-04-12T05:18:58.098Z,99.95
2018-04-12T05:19:58.091Z,99.75
2018-04-12T05:20:58.134Z,99.75
2018-04-12T05:21:58.097Z,99.75
2018-04-12T05:22:58.107Z,99.56
2018-04-12T05:23:58.104Z,99.66
2018-04-12T05:24:58.109Z,99.75
2018-04-12T05:25:58.111Z,99.27
2018-04-12T05:26:58.115Z,99.27
2018-04-12T05:27:58.119Z,99.18
2018-04-12T05:28:58.114Z,99.18
2018-04-12T05:29:58.134Z,99.27
2018-04-12T05:30:58.124Z,99.37
2018-04-12T05:31:58.129Z,99.46
2018-04-12T05:32:58.130Z,99.37
2018-04-12T05:33:58.198Z,99.56
2018-04-12T05:34:58.147Z,99.18
2018-04-12T05:35:58.140Z,99.18
2018-04-12T05:36:58.155Z,99.18
2018-04-12T05:37:58.147Z,99.08
2018-04-12T05:38:58.165Z,98.61
2018-04-12T05:39:58.184Z,98.99
2018-04-12T05:40:58.201Z,99.08
2018-04-12T05:41:58.156Z,99.08
2018-04-12T05:42:58.161Z,98.99
2018-04-12T05:43:58.155Z,99.37
2018-04-12T05:44:58.161Z,98.51
2018-04-12T05:45:58.166Z,98.22
2018-04-12T05:46:58.165Z,98.51
2018-04-12T05:47:58.174Z,98.18
2018-04-12T05:48:58.168Z,98.37
2018-04-12T05:49:58.173Z,97.94
2018-04-12T05:50:58.178Z,97.75
2018-04-12T05:51:58.178Z,98.32
2018-04-12T05:52:58.190Z,98.22
2018-04-12T05:53:58.181Z,98.42
2018-04-12T05:54:58.190Z,98.13
2018-04-12T05:55:58.193Z,98.42
2018-04-12T05:56:58.197Z,98.03
2018-04-12T05:57:58.195Z,98.42
2018-04-12T05:58:58.218Z,97.85
2018-04-12T05:59:58.203Z,97.94
2018-04-12T06:00:58.210Z,98.42
2018-04-12T06:01:58.216Z,97.89
2018-04-12T06:02:58.214Z,97.80
2018-04-12T06:03:58.213Z,97.71
2018-04-12T06:04:58.220Z,97.99
2018-04-12T06:05:58.219Z,97.22
2018-04-12T06:06:58.224Z,97.03
2018-04-12T06:07:58.221Z,97.71
2018-04-12T06:08:58.227Z,97.22
2018-04-12T06:09:58.227Z,97.13
2018-04-12T06:10:58.233Z,96.84
2018-04-12T06:11:58.229Z,96.46
2018-04-12T06:12:58.241Z,96.46
2018-04-12T06:13:58.236Z,96.37
2018-04-12T06:14:58.247Z,96.66
2018-04-12T06:15:58.248Z,96.66
2018-04-12T06:16:58.257Z,96.37
2018-04-12T06:17:58.248Z,96.56
2018-04-12T06:18:58.261Z,96.17
2018-04-12T06:19:58.262Z,96.08
2018-04-12T06:20:58.266Z,96.08
2018-04-12T06:21:58.262Z,95.79
2018-04-12T06:22:58.298Z,96.08
2018-04-12T06:23:58.273Z,96.17
2018-04-12T06:24:58.274Z,95.32
2018-04-12T06:25:58.286Z,95.51
2018-04-12T06:26:58.284Z,95.03
2018-04-12T06:27:58.288Z,94.65
2018-04-12T06:28:58.282Z,94.84
2018-04-12T06:29:58.285Z,95.03
2018-04-12T06:30:58.297Z,95.22
2018-04-12T06:31:58.291Z,95.61
2018-04-12T06:32:58.292Z,95.41
2018-04-12T06:33:58.302Z,95.22
2018-04-12T06:34:58.301Z,95.70
2018-04-12T06:35:58.307Z,95.70
2018-04-12T06:36:58.305Z,95.61
2018-04-12T06:37:58.305Z,95.22
2018-04-12T06:38:58.310Z,95.22
2018-04-12T06:39:58.318Z,95.61
2018-04-12T06:40:58.316Z,95.61
2018-04-12T06:41:58.323Z,95.32
2018-04-12T06:42:58.330Z,95.41
2018-04-12T06:43:58.327Z,95.61
2018-04-12T06:44:58.328Z,95.22
2018-04-12T06:45:58.329Z,95.98
2018-04-12T06:46:58.343Z,95.51
2018-04-12T06:47:58.335Z,95.41
2018-04-12T06:48:58.338Z,95.70
2018-04-12T06:49:58.344Z,95.41
2018-04-12T06:50:58.354Z,95.51
2018-04-12T06:51:58.367Z,95.61
2018-04-12T06:52:58.346Z,95.03
2018-04-12T06:53:58.353Z,94.93
2018-04-12T06:54:58.356Z,94.93
2018-04-12T06:55:58.359Z,94.56
2018-04-12T06:56:58.369Z,94.60
2018-04-12T06:57:58.362Z,94.93
2018-04-12T06:58:58.371Z,95.61
2018-04-12T06:59:58.368Z,95.61
2018-04-12T07:00:58.376Z,95.03
2018-04-12T07:01:58.374Z,94.56
2018-04-12T07:02:58.399Z,94.56
2018-04-12T07:03:58.385Z,94.56
2018-04-12T07:04:58.386Z,93.98
2018-04-12T07:05:59.322Z,93.79
2018-04-12T07:06:58.392Z,93.98
2018-04-12T07:07:58.387Z,94.36
2018-04-12T07:08:58.394Z,94.07
2018-04-12T07:09:58.395Z,94.17
2018-04-12T07:10:58.406Z,93.70
2018-04-12T07:11:58.404Z,93.51
2018-04-12T07:12:58.408Z,93.02
2018-04-12T07:13:58.412Z,93.31
2018-04-12T07:14:58.567Z,93.02
2018-04-12T07:15:58.413Z,93.41
2018-04-12T07:16:58.425Z,93.41
2018-04-12T07:17:58.417Z,93.02
2018-04-12T07:18:58.441Z,92.74
2018-04-12T07:19:58.612Z,92.65
2018-04-12T07:20:58.469Z,92.74
2018-04-12T07:21:58.430Z,92.65
2018-04-12T07:22:58.434Z,92.17
2018-04-12T07:23:58.439Z,92.07
2018-04-12T07:24:58.442Z,92.17
2018-04-12T07:25:58.450Z,91.69
2018-04-12T07:26:58.445Z,91.41
2018-04-12T07:27:58.502Z,91.12
2018-04-12T07:28:58.457Z,91.26
2018-04-12T07:29:58.463Z,90.40
2018-04-12T07:30:58.457Z,90.40
2018-04-12T07:31:58.464Z,90.02
2018-04-12T07:32:58.487Z,89.92
2018-04-12T07:33:58.465Z,89.59
2018-04-12T07:34:58.470Z,88.92
2018-04-12T07:35:58.477Z,88.25
2018-04-12T07:36:58.482Z,87.68
2018-04-12T07:37:58.481Z,86.82
2018-04-12T07:38:58.485Z,86.43
2018-04-12T07:39:58.485Z,86.72
2018-04-12T07:40:58.498Z,85.96
2018-04-12T07:41:58.508Z,87.29
2018-04-12T07:42:58.504Z,86.53
2018-04-12T07:43:58.510Z,86.24
2018-04-12T07:44:58.577Z,86.72
2018-04-12T07:45:58.506Z,86.63
2018-04-12T07:46:58.512Z,86.82
2018-04-12T07:47:58.514Z,86.15
2018-04-12T07:48:58.526Z,86.19
2018-04-12T07:49:58.521Z,86.00
2018-04-12T07:50:58.526Z,86.15
2018-04-12T07:51:58.531Z,85.05
2018-04-12T07:52:58.537Z,85.24
2018-04-12T07:53:58.531Z,85.38
2018-04-12T07:54:58.544Z,85.19
2018-04-12T07:55:58.543Z,85.77
2018-04-12T07:56:58.602Z,86.15
2018-04-12T07:57:58.590Z,86.24
2018-04-12T07:58:58.556Z,86.34
2018-04-12T07:59:58.675Z,85.81
2018-04-12T08:00:58.697Z,85.96
2018-04-12T08:01:59.441Z,86.15
2018-04-12T08:02:58.585Z,86.24
2018-04-12T08:03:58.578Z,85.96
2018-04-12T08:04:58.753Z,86.05
2018-04-12T08:05:58.779Z,86.05
2018-04-12T08:06:58.768Z,86.34
2018-04-12T08:07:58.737Z,86.15
2018-04-12T08:08:58.599Z,85.86
2018-04-12T08:09:58.600Z,86.05
2018-04-12T08:10:58.731Z,86.15
2018-04-12T08:11:58.603Z,86.34
2018-04-12T08:12:58.640Z,86.15
2018-04-12T08:13:58.616Z,85.77
2018-04-12T08:14:58.622Z,85.62
2018-04-12T08:15:58.624Z,85.71
2018-04-12T08:16:58.621Z,84.38
2018-04-12T08:17:58.632Z,83.70
2018-04-12T08:18:58.631Z,83.42
2018-04-12T08:19:58.639Z,83.61
2018-04-12T08:20:58.636Z,83.51
2018-04-12T08:21:58.644Z,82.70
2018-04-12T08:22:58.644Z,82.60
2018-04-12T08:23:58.693Z,82.60
2018-04-12T08:24:58.652Z,82.75
2018-04-12T08:25:58.654Z,82.94
2018-04-12T08:26:58.660Z,82.65
2018-04-12T08:27:58.664Z,82.41
2018-04-12T08:28:58.670Z,82.51
2018-04-12T08:29:58.678Z,81.65
2018-04-12T08:30:58.674Z,81.16
2018-04-12T08:31:58.686Z,80.73
2018-04-12T08:32:58.700Z,80.63
2018-04-12T08:33:58.695Z,79.96
2018-04-12T08:34:58.702Z,79.77
2018-04-12T08:35:58.706Z,80.25
2018-04-12T08:36:58.699Z,79.20
2018-04-12T08:37:58.708Z,79.77
2018-04-12T08:38:58.717Z,80.06
2018-04-12T08:39:58.724Z,79.68
2018-04-12T08:40:58.727Z,79.87
2018-04-12T08:41:58.726Z,79.58
2018-04-12T08:42:58.727Z,79.58
2018-04-12T08:43:58.736Z,79.83
2018-04-12T08:44:58.750Z,80.21
2018-04-12T08:45:58.769Z,80.50
2018-04-12T08:46:58.755Z,81.26
2018-04-12T08:47:58.760Z,81.65
2018-04-12T08:48:58.781Z,81.99
2018-04-12T08:49:58.785Z,82.37
2018-04-12T08:50:58.818Z,82.18
2018-04-12T08:51:58.852Z,82.75
2018-04-12T08:52:58.792Z,82.94
2018-04-12T08:53:58.797Z,82.37
2018-04-12T08:54:58.808Z,82.37
2018-04-12T08:55:58.812Z,83.04
2018-04-12T08:56:58.853Z,82.65
2018-04-12T08:57:58.797Z,82.84
2018-04-12T08:58:58.799Z,82.75
2018-04-12T08:59:58.805Z,82.31
2018-04-12T09:00:58.811Z,82.12
2018-04-12T09:01:58.834Z,82.31
2018-04-12T09:02:58.820Z,81.55
2018-04-12T09:03:58.828Z,81.55
2018-04-12T09:04:58.823Z,81.07
2018-04-12T09:05:58.834Z,80.98
2018-04-12T09:06:58.837Z,81.07
2018-04-12T09:07:58.839Z,80.59
2018-04-12T09:08:58.889Z,79.83
2018-04-12T09:09:58.844Z,79.58
2018-04-12T09:10:58.855Z,80.11
2018-04-12T09:11:58.861Z,80.88
2018-04-12T09:12:58.860Z,80.92
2018-04-12T09:13:58.867Z,80.06
2018-04-12T09:14:58.872Z,79.68
2018-04-12T09:15:58.878Z,79.87
2018-04-12T09:16:58.874Z,79.39
2018-04-12T09:17:58.938Z,79.58
2018-04-12T09:18:58.887Z,80.25
2018-04-12T09:19:58.895Z,79.20
2018-04-12T09:20:58.901Z,79.39
2018-04-12T09:21:58.896Z,78.53
2018-04-12T09:22:58.909Z,77.99
2018-04-12T09:23:58.915Z,76.31
2018-04-12T09:24:58.917Z,75.45
2018-04-12T09:25:58.919Z,75.73
2018-04-12T09:26:58.928Z,75.45
2018-04-12T09:27:58.931Z,74.33
2018-04-12T09:28:58.937Z,73.32
2018-04-12T09:29:58.979Z,71.63
2018-04-12T09:30:58.942Z,70.57
2018-04-12T09:31:58.951Z,70.03
2018-04-12T09:32:58.951Z,69.17
2018-04-12T09:33:58.958Z,69.71
2018-04-12T09:34:58.968Z,70.86
2018-04-12T09:35:58.970Z,70.29
2018-04-12T09:36:58.978Z,70.29
2018-04-12T09:37:59.041Z,70.29
2018-04-12T09:38:58.992Z,70.19
2018-04-12T09:39:58.997Z,70.29
2018-04-12T09:40:59.012Z,69.71
2018-04-12T09:41:59.008Z,69.56
2018-04-12T09:42:59.022Z,69.81
2018-04-12T09:43:59.027Z,70.54
2018-04-12T09:44:59.039Z,71.78
2018-04-12T09:45:59.040Z,71.88
2018-04-12T09:46:59.080Z,72.27
2018-04-12T09:47:59.098Z,72.27
2018-04-12T09:48:59.093Z,71.78
2018-04-12T09:49:59.071Z,72.07
2018-04-12T09:50:59.081Z,72.07
2018-04-12T09:51:59.084Z,72.03
2018-04-12T09:52:59.127Z,72.42
2018-04-12T09:53:59.100Z,73.19
2018-04-12T09:54:59.143Z,73.76
2018-04-12T09:55:59.129Z,73.47
2018-04-12T09:56:59.154Z,72.64
2018-04-12T09:57:59.152Z,72.36
2018-04-12T09:58:59.166Z,72.55
2018-04-12T09:59:59.224Z,71.78
2018-04-12T10:00:59.184Z,71.59
2018-04-12T10:01:59.187Z,71.11
2018-04-12T10:02:59.193Z,70.86
2018-04-12T10:03:59.199Z,70.86
2018-04-12T10:04:59.214Z,70.96
2018-04-12T10:05:59.228Z,70.38
2018-04-12T10:06:59.218Z,70.38
2018-04-12T10:07:59.211Z,70.44
2018-04-12T10:08:59.283Z,70.48
2018-04-12T10:09:59.241Z,70.67
2018-04-12T10:10:59.251Z,70.03
2018-04-12T10:11:59.249Z,69.26
2018-04-12T10:12:59.261Z,69.42
2018-04-12T10:13:59.264Z,69.56
2018-04-12T10:14:59.282Z,68.88
2018-04-12T10:15:59.337Z,67.67
2018-04-12T10:16:59.445Z,67.09
2018-04-12T10:17:59.303Z,67.38
2018-04-12T10:18:59.332Z,67.00
2018-04-12T10:19:59.321Z,67.06
2018-04-12T10:20:59.326Z,67.73
2018-04-12T10:21:59.329Z,68.59
2018-04-12T10:22:59.339Z,68.50
2018-04-12T10:23:59.346Z,68.50
2018-04-12T10:24:59.359Z,69.17
2018-04-12T10:25:59.367Z,69.42
2018-04-12T10:26:59.371Z,69.33
2018-04-12T10:27:59.385Z,69.17
2018-04-12T10:28:59.432Z,68.98
2018-04-12T10:29:59.403Z,68.40
2018-04-12T10:30:59.409Z,67.83
2018-04-12T10:31:59.476Z,67.25
2018-04-12T10:32:59.442Z,66.96
2018-04-12T10:33:59.442Z,67.57
2018-04-12T10:34:59.445Z,66.80
2018-04-12T10:35:59.456Z,65.97
2018-04-12T10:36:59.459Z,65.40
2018-04-12T10:37:59.463Z,65.20
2018-04-12T10:38:59.479Z,64.92
2018-04-12T10:39:59.484Z,64.82
2018-04-12T10:40:59.508Z,64.92
2018-04-12T10:41:59.503Z,64.18
2018-04-12T10:42:59.517Z,63.41
2018-04-12T10:43:59.521Z,63.32
2018-04-12T10:44:59.541Z,64.09
2018-04-12T10:45:59.543Z,63.41
2018-04-12T10:46:59.563Z,63.32
2018-04-12T10:47:59.572Z,63.51
2018-04-12T10:48:59.612Z,63.22
2018-04-12T10:49:59.588Z,63.06
2018-04-12T10:50:59.614Z,63.32
2018-04-12T10:51:59.664Z,63.89
2018-04-12T10:52:59.631Z,64.09
2018-04-12T10:53:59.649Z,64.53
2018-04-12T10:54:59.656Z,63.79
2018-04-12T10:55:59.661Z,63.79
2018-04-12T10:56:59.669Z,63.60
2018-04-12T10:57:59.688Z,63.45
2018-04-12T10:58:59.693Z,62.96
2018-04-12T10:59:59.713Z,62.38
2018-04-12T11:00:59.719Z,62.29
2018-04-12T11:01:59.736Z,62.93
2018-04-12T11:02:59.738Z,62.58
2018-04-12T11:03:59.754Z,62.19
2018-04-12T11:04:59.791Z,62.10
2018-04-12T11:05:59.818Z,61.23
2018-04-12T11:06:59.794Z,61.14
2018-04-12T11:07:59.801Z,61.91
2018-04-12T11:08:59.822Z,62.45
2018-04-12T11:09:59.827Z,62.84
2018-04-12T11:10:59.847Z,63.19
2018-04-12T11:11:59.859Z,63.48
2018-04-12T11:12:59.877Z,63.70
2018-04-12T11:13:59.897Z,63.48
2018-04-12T11:14:59.887Z,64.05
2018-04-12T11:15:59.904Z,64.09
2018-04-12T11:16:59.915Z,64.18
2018-04-12T11:17:59.921Z,64.53
2018-04-12T11:18:59.942Z,64.92
2018-04-12T11:19:59.958Z,65.11
2018-04-12T11:20:59.995Z,65.59
2018-04-12T11:21:59.970Z,65.40
2018-04-12T11:22:59.980Z,65.69
2018-04-12T11:23:59.992Z,65.49
2018-04-12T11:25:00.010Z,65.40
2018-04-12T11:26:00.035Z,65.88
2018-04-12T11:27:00.028Z,65.43
2018-04-12T11:28:00.036Z,65.33
2018-04-12T11:29:00.051Z,65.05
2018-04-12T11:30:00.095Z,64.47
2018-04-12T11:31:00.066Z,64.60
2018-04-12T11:32:00.105Z,63.64
2018-04-12T11:33:00.084Z,62.51
2018-04-12T11:34:01.406Z,61.74
2018-04-12T11:35:00.122Z,62.23
2018-04-12T11:36:00.121Z,62.13
2018-04-12T11:37:00.190Z,62.29
2018-04-12T11:38:00.144Z,62.10
2018-04-12T11:39:00.148Z,63.22
2018-04-12T11:40:00.161Z,62.84
2018-04-12T11:41:00.173Z,63.32
2018-04-12T11:42:00.250Z,64.09
2018-04-12T11:43:00.195Z,64.18
2018-04-12T11:44:00.208Z,64.28
2018-04-12T11:45:00.212Z,65.40
2018-04-12T11:46:00.221Z,65.49
2018-04-12T11:47:00.233Z,65.59
2018-04-12T11:48:00.243Z,65.69
2018-04-12T11:49:00.279Z,66.26
2018-04-12T11:50:00.281Z,66.84
2018-04-12T11:51:00.279Z,66.74
2018-04-12T11:52:00.281Z,66.07
2018-04-12T11:53:00.291Z,66.16
2018-04-12T11:54:00.303Z,65.69
2018-04-12T11:55:00.341Z,65.69
2018-04-12T11:56:00.337Z,65.49
2018-04-12T11:57:00.332Z,64.92
2018-04-12T11:58:01.547Z,65.14
2018-04-12T11:59:00.351Z,65.62
2018-04-12T12:00:00.361Z,65.23
2018-04-12T12:01:00.367Z,65.62
2018-04-12T12:02:00.380Z,65.33
2018-04-12T12:03:00.385Z,64.40
2018-04-12T12:04:00.400Z,64.56
2018-04-12T12:05:00.404Z,64.47
2018-04-12T12:06:00.418Z,64.56
2018-04-12T12:07:00.452Z,64.85
2018-04-12T12:08:00.429Z,65.30
2018-04-12T12:09:00.440Z,65.49
2018-04-12T12:10:00.452Z,65.59
2018-04-12T12:11:00.453Z,65.72
2018-04-12T12:12:00.461Z,65.43
2018-04-12T12:13:00.478Z,65.53
2018-04-12T12:14:00.483Z,65.62
2018-04-12T12:15:00.492Z,64.76
2018-04-12T12:16:00.497Z,64.66
2018-04-12T12:17:00.523Z,65.14
2018-04-12T12:18:00.524Z,65.05
2018-04-12T12:19:00.520Z,65.78
2018-04-12T12:20:00.535Z,66.46
2018-04-12T12:21:00.547Z,66.64
2018-04-12T12:22:00.551Z,66.90
2018-04-12T12:23:00.571Z,67.47
2018-04-12T12:24:00.565Z,67.57
2018-04-12T12:25:00.583Z,68.15
2018-04-12T12:26:00.589Z,67.96
2018-04-12T12:27:00.591Z,67.96
2018-04-12T12:28:00.603Z,68.05
2018-04-12T12:29:00.610Z,67.67
2018-04-12T12:30:00.613Z,67.19
2018-04-12T12:31:00.627Z,67.67
2018-04-12T12:32:00.636Z,67.76
2018-04-12T12:33:00.637Z,68.53
2018-04-12T12:34:00.662Z,68.63
2018-04-12T12:35:00.660Z,67.67
2018-04-12T12:36:00.661Z,68.24
2018-04-12T12:37:00.671Z,67.41
2018-04-12T12:38:00.679Z,67.57
2018-04-12T12:39:00.681Z,67.38
2018-04-12T12:40:00.706Z,67.96
2018-04-12T12:41:00.701Z,68.63
2018-04-12T12:42:00.706Z,68.53
2018-04-12T12:43:00.708Z,68.44
2018-04-12T12:44:00.719Z,68.91
2018-04-12T12:45:00.728Z,69.07
2018-04-12T12:46:00.732Z,68.98
2018-04-12T12:47:00.750Z,69.59
2018-04-12T12:48:00.747Z,69.11
2018-04-12T12:49:00.758Z,69.20
2018-04-12T12:50:00.827Z,69.01
2018-04-12T12:51:00.814Z,69.30
2018-04-12T12:52:00.775Z,69.20
2018-04-12T12:53:00.789Z,68.98